Meteorología y climatología de Navarra
Datos de la estación - Meteo Navarra

Estación de Aoiz GN

Altitud 534 m.


Datos desde el 11/10/2018 hasta el 12/10/2018 en horario solar
Los datos son PROVISIONALES

Anterior Página 1 de 1 Siguiente Descargar: Formato para Excel 2000 o superior   Formato csv   Formato para OpenOffice Calc
Fecha Temperatura Humedad relativa Radiación global Insolación Precipitación Velocidad viento 10 m Velocidad viento 10 m Dirección viento 10 m
ºC % W/m² s l/m² m/s km/h º
11/10/2018 0:00 15.5 74 0.0 0 0.0 1.6 5.8 129
11/10/2018 0:10 15.5 75 0.0 0 0.0 3.0 10.6 121
11/10/2018 0:20 15.7 74 0.0 0 0.0 3.9 14.0 114
11/10/2018 0:30 15.8 74 0.0 0 0.0 3.5 12.7 122
11/10/2018 0:40 15.8 74 0.0 0 0.0 2.7 9.6 136
11/10/2018 0:50 15.5 75 0.0 0 0.0 1.7 6.2 116
11/10/2018 1:00 15.4 76 0.0 0 0.0 2.4 8.7 117
11/10/2018 1:10 15.5 76 0.0 0 0.0 2.8 10.2 123
11/10/2018 1:20 15.8 75 0.0 0 0.0 3.2 11.5 121
11/10/2018 1:30 15.9 75 0.0 0 0.0 3.2 11.6 119
11/10/2018 1:40 15.9 75 0.0 0 0.0 3.4 12.4 106
11/10/2018 1:50 16.0 74 0.0 0 0.0 3.2 11.4 119
11/10/2018 2:00 16.1 73 0.0 0 0.0 3.6 13.1 127
11/10/2018 2:10 16.0 73 0.0 0 0.0 3.2 11.6 140
11/10/2018 2:20 16.0 74 0.0 0 0.0 2.6 9.5 137
11/10/2018 2:30 15.9 74 0.0 0 0.0 2.7 9.6 132
11/10/2018 2:40 16.0 73 0.0 0 0.0 2.4 8.5 132
11/10/2018 2:50 16.0 73 0.0 0 0.0 2.1 7.4 151
11/10/2018 3:00 16.1 73 0.0 0 0.0 2.0 7.2 148
11/10/2018 3:10 16.2 72 0.0 0 0.0 2.0 7.1 147
11/10/2018 3:20 16.6 70 0.0 0 0.0 2.6 9.5 137
11/10/2018 3:30 16.6 69 0.0 0 0.0 1.8 6.6 157
11/10/2018 3:40 16.5 70 0.0 0 0.0 2.3 8.3 147
11/10/2018 3:50 16.5 70 0.0 0 0.0 2.4 8.7 152
11/10/2018 4:00 16.3 71 0.0 0 0.0 1.6 5.7 169
11/10/2018 4:10 16.2 71 0.0 0 0.0 1.5 5.5 157
11/10/2018 4:20 16.4 71 0.0 0 0.0 2.9 10.4 129
11/10/2018 4:30 16.3 71 0.0 0 0.0 3.4 12.2 133
11/10/2018 4:40 16.3 72 0.0 0 0.0 3.6 13.0 133
11/10/2018 4:50 16.2 72 0.0 0 0.0 3.4 12.1 131
11/10/2018 5:00 16.1 73 0.0 0 0.0 2.3 8.1 130
11/10/2018 5:10 15.9 74 0.0 0 0.0 1.7 6.0 136
11/10/2018 5:20 15.9 74 0.0 0 0.0 2.3 8.3 133
11/10/2018 5:30 15.6 76 0.0 0 0.0 2.4 8.5 117
11/10/2018 5:40 15.7 75 0.0 0 0.0 2.6 9.2 114
11/10/2018 5:50 16.1 74 0.0 0 0.0 3.5 12.6 116
11/10/2018 6:00 16.5 72 0.0 0 0.0 3.3 11.8 118
11/10/2018 6:10 16.6 71 0.0 0 0.0 3.1 11.3 117
11/10/2018 6:20 16.7 71 0.0 0 0.0 3.4 12.1 126
11/10/2018 6:30 16.9 70 9.5 0 0.0 3.1 11.3 116
11/10/2018 6:40 16.9 71 29.6 298 0.0 4.2 15.0 121
11/10/2018 6:50 17.1 70 34.8 166 0.0 3.5 12.4 119
11/10/2018 7:00 16.9 71 36.6 0 0.0 3.4 12.2 139
11/10/2018 7:10 16.7 72 40.7 0 0.0 3.7 13.4 121
11/10/2018 7:20 16.7 72 51.8 0 0.0 3.6 12.8 112
11/10/2018 7:30 17.1 71 54.3 0 0.0 2.9 10.3 120
11/10/2018 7:40 17.4 70 101.0 26 0.0 3.6 12.9 124
11/10/2018 7:50 17.7 69 96.6 32 0.0 2.5 9.0 136
11/10/2018 8:00 17.6 70 90.5 0 0.0 3.7 13.4 141
11/10/2018 8:10 17.8 69 99.5 0 0.0 4.1 14.9 123
11/10/2018 8:20 17.9 68 134.7 0 0.0 4.6 16.7 122
11/10/2018 8:30 18.1 67 172.0 0 0.0 4.7 16.9 123
11/10/2018 8:40 18.5 66 261.8 522 0.0 4.7 17.0 126
11/10/2018 8:50 19.1 64 333.0 600 0.0 3.0 10.6 144
11/10/2018 9:00 19.3 64 309.7 600 0.0 3.9 13.9 143
11/10/2018 9:10 19.2 65 253.2 378 0.0 3.9 14.0 143
11/10/2018 9:20 19.3 64 285.7 574 0.0 4.0 14.5 136
11/10/2018 9:30 19.7 63 307.4 418 0.0 2.8 10.0 133
11/10/2018 9:40 20.5 61 556.8 544 0.0 2.9 10.4 149
11/10/2018 9:50 20.9 59 620.1 600 0.0 4.7 16.7 145
11/10/2018 10:00 21.1 58 690.6 578 0.0 5.1 18.3 133
11/10/2018 10:10 21.8 56 808.0 600 0.0 5.3 19.1 132
11/10/2018 10:20 22.1 55 795.0 600 0.0 4.7 16.8 133
11/10/2018 10:30 22.1 55 519.3 418 0.0 4.2 14.9 138
11/10/2018 10:40 21.5 57 306.6 136 0.0 3.9 14.2 156
11/10/2018 10:50 22.0 55 721.3 600 0.0 5.2 18.8 176
11/10/2018 11:00 22.2 54 639.1 600 0.0 5.3 19.0 157
11/10/2018 11:10 21.7 55 238.1 60 0.0 4.7 17.0 164
11/10/2018 11:20 21.1 57 121.5 0 0.1 5.8 20.9 171
11/10/2018 11:30 20.7 59 63.3 0 0.0 5.1 18.3 169
11/10/2018 11:40 19.4 58 74.8 0 0.0 3.5 12.7 153
11/10/2018 11:50 20.1 62 67.8 0 0.0 3.4 12.3 147
11/10/2018 12:00 20.0 64 218.5 0 0.0 3.8 13.8 148
11/10/2018 12:10 20.4 63 288.0 26 0.0 4.5 16.0 131
11/10/2018 12:20 20.5 62 336.1 218 0.0 5.0 18.1 139
11/10/2018 12:30 20.9 61 409.2 600 0.0 4.8 17.4 125
11/10/2018 12:40 20.5 62 301.7 66 0.0 5.6 20.1 146
11/10/2018 12:50 20.4 61 246.0 0 0.0 4.4 15.8 138
11/10/2018 13:00 20.5 61 169.2 0 0.0 4.3 15.3 148
11/10/2018 13:10 20.4 61 157.4 0 0.0 3.8 13.5 146
11/10/2018 13:20 20.4 62 158.5 0 0.0 3.4 12.3 148
11/10/2018 13:30 20.5 61 197.8 0 0.0 4.1 14.6 134
11/10/2018 13:40 20.8 60 288.0 202 0.0 5.5 19.7 133
11/10/2018 13:50 21.0 60 226.3 0 0.0 3.6 13.1 143
11/10/2018 14:00 21.1 59 197.4 0 0.0 4.4 15.7 141
11/10/2018 14:10 21.2 59 263.0 138 0.0 3.9 14.2 142
11/10/2018 14:20 22.5 56 652.3 600 0.0 4.1 14.7 138
11/10/2018 14:30 22.6 55 507.1 600 0.0 4.6 16.6 141
11/10/2018 14:40 22.2 56 318.7 478 0.0 5.1 18.4 148
11/10/2018 14:50 22.0 56 226.0 90 0.0 3.8 13.8 150
11/10/2018 15:00 22.1 56 246.3 210 0.0 4.7 16.8 119
11/10/2018 15:10 21.9 56 96.2 0 0.0 4.1 14.9 136
11/10/2018 15:20 21.7 57 47.6 0 0.0 4.7 16.8 135
11/10/2018 15:30 21.5 57 29.8 0 0.0 5.1 18.4 134
11/10/2018 15:40 21.5 57 19.2 0 0.0 5.3 18.9 135
11/10/2018 15:50 21.3 59 25.1 0 0.0 4.9 17.5 130
11/10/2018 16:00 21.4 58 33.7 0 0.0 4.6 16.4 133
11/10/2018 16:10 21.0 61 35.8 0 0.0 4.1 14.8 139
11/10/2018 16:20 20.3 67 11.4 0 0.0 2.6 9.5 153
11/10/2018 16:30 19.9 69 26.9 0 0.0 3.0 10.7 126
11/10/2018 16:40 19.9 68 20.2 0 0.0 2.3 8.3 105
11/10/2018 16:50 20.1 66 14.0 0 0.0 4.3 15.6 120
11/10/2018 17:00 20.3 66 35.4 0 0.0 4.1 14.7 112
11/10/2018 17:10 20.3 65 13.2 0 0.0 3.6 12.8 115
11/10/2018 17:20 20.2 65 0.0 0 0.0 3.4 12.4 113
11/10/2018 17:30 20.2 65 0.0 0 0.0 4.3 15.3 118
11/10/2018 17:40 20.4 64 0.0 0 0.0 3.4 12.1 108
11/10/2018 17:50 20.4 63 0.0 0 0.0 2.0 7.2 92
11/10/2018 18:00 20.3 63 0.0 0 0.0 2.6 9.4 83
11/10/2018 18:10 20.3 63 0.0 0 0.0 3.3 11.7 91
11/10/2018 18:20 20.2 64 0.0 0 0.0 3.6 12.9 87
11/10/2018 18:30 20.3 63 0.0 0 0.0 3.5 12.4 83
11/10/2018 18:40 20.4 62 0.0 0 0.0 3.2 11.5 95
11/10/2018 18:50 20.4 62 0.0 0 0.0 2.6 9.3 88
11/10/2018 19:00 20.4 62 0.0 0 0.0 1.4 4.9 100
11/10/2018 19:10 20.2 64 0.0 0 0.0 3.6 12.8 111
11/10/2018 19:20 20.0 65 0.0 0 0.0 2.0 7.1 107
11/10/2018 19:30 20.0 65 0.0 0 0.0 2.5 9.1 112
11/10/2018 19:40 20.1 64 0.0 0 0.0 3.2 11.6 121
11/10/2018 19:50 20.0 65 0.0 0 0.0 3.1 11.2 123
11/10/2018 20:00 19.8 66 0.0 0 0.0 2.1 7.7 140
11/10/2018 20:10 19.8 66 0.0 0 0.0 2.3 8.2 137
11/10/2018 20:20 19.9 66 0.0 0 0.0 3.2 11.4 117
11/10/2018 20:30 19.9 66 0.0 0 0.0 2.8 10.0 113
11/10/2018 20:40 19.9 66 0.0 0 0.0 2.6 9.3 133
11/10/2018 20:50 19.7 66 0.0 0 0.0 1.7 6.0 56
11/10/2018 21:00 19.6 66 0.0 0 0.0 1.9 6.9 101
11/10/2018 21:10 19.6 66 0.0 0 0.0 2.4 8.6 148
11/10/2018 21:20 19.7 66 0.0 0 0.0 2.2 7.9 129
11/10/2018 21:30 19.6 66 0.0 0 0.0 2.8 10.2 121
11/10/2018 21:40 19.5 66 0.0 0 0.0 3.1 11.2 120
11/10/2018 21:50 19.3 67 0.0 0 0.0 3.3 12.0 126
11/10/2018 22:00 19.3 67 0.0 0 0.0 3.2 11.4 144
11/10/2018 22:10 19.3 67 0.0 0 0.0 3.3 11.7 142
11/10/2018 22:20 19.6 66 0.0 0 0.0 3.4 12.2 142
11/10/2018 22:30 19.6 66 0.0 0 0.0 3.1 11.0 135
11/10/2018 22:40 19.7 65 0.0 0 0.0 3.8 13.7 132
11/10/2018 22:50 19.6 66 0.0 0 0.0 3.8 13.5 121
11/10/2018 23:00 19.5 66 0.0 0 0.0 3.6 13.0 116
11/10/2018 23:10 19.7 66 0.0 0 0.0 3.7 13.3 121
11/10/2018 23:20 19.8 65 0.0 0 0.0 3.4 12.2 127
11/10/2018 23:30 19.7 66 0.0 0 0.0 3.6 13.1 113
11/10/2018 23:40 19.8 66 0.0 0 0.0 3.5 12.6 121
11/10/2018 23:50 19.9 65 0.0 0 0.0 3.8 13.5 133
Anterior Página 1 de 1 Siguiente

NOTA: Tipo de datos según el color:
   - Valores diarios o 10 minutos correctos
   - Valores diarios calculados a partir de un número de datos 10 minutos menor que 144 y mayor que 120, o de un número de datos semihorarios menor que 48 y mayor que 40 (caso de las estaciones de Riegos de Navarra y del MARM)
   - Valores diez minutos estimados


Contacto        Enlaces        Aviso legal